sensor_id;sensor_type;location;lat;lon;timestamp;P1;durP1;ratioP1;P2;durP2;ratioP2
35897;SDS011;21997;47.118;15.346;2023-06-14T00:01:10;2.10;;;1.90;;
35897;SDS011;21997;47.118;15.346;2023-06-14T00:03:38;2.80;;;2.30;;
35897;SDS011;21997;47.118;15.346;2023-06-14T00:06:04;2.70;;;2.27;;
35897;SDS011;21997;47.118;15.346;2023-06-14T00:08:29;3.40;;;2.57;;
35897;SDS011;21997;47.118;15.346;2023-06-14T00:10:55;5.83;;;2.23;;
35897;SDS011;21997;47.118;15.346;2023-06-14T00:13:20;2.77;;;2.37;;
35897;SDS011;21997;47.118;15.346;2023-06-14T00:15:46;5.77;;;2.17;;
35897;SDS011;21997;47.118;15.346;2023-06-14T00:18:12;3.33;;;2.30;;
35897;SDS011;21997;47.118;15.346;2023-06-14T00:20:37;3.20;;;2.30;;
35897;SDS011;21997;47.118;15.346;2023-06-14T00:23:04;6.67;;;2.33;;
35897;SDS011;21997;47.118;15.346;2023-06-14T00:25:30;2.77;;;2.20;;
35897;SDS011;21997;47.118;15.346;2023-06-14T00:27:55;3.67;;;2.37;;
35897;SDS011;21997;47.118;15.346;2023-06-14T00:30:21;2.70;;;2.00;;
35897;SDS011;21997;47.118;15.346;2023-06-14T00:32:47;2.77;;;2.40;;
35897;SDS011;21997;47.118;15.346;2023-06-14T00:35:12;2.33;;;1.90;;
35897;SDS011;21997;47.118;15.346;2023-06-14T00:37:38;2.90;;;2.57;;
35897;SDS011;21997;47.118;15.346;2023-06-14T00:40:04;2.60;;;2.10;;
35897;SDS011;21997;47.118;15.346;2023-06-14T00:42:30;2.93;;;2.07;;
35897;SDS011;21997;47.118;15.346;2023-06-14T00:44:57;3.47;;;2.80;;
35897;SDS011;21997;47.118;15.346;2023-06-14T00:47:22;2.80;;;2.40;;
35897;SDS011;21997;47.118;15.346;2023-06-14T00:49:48;2.53;;;2.33;;
35897;SDS011;21997;47.118;15.346;2023-06-14T00:52:15;4.20;;;2.57;;
35897;SDS011;21997;47.118;15.346;2023-06-14T00:54:41;2.97;;;2.47;;
35897;SDS011;21997;47.118;15.346;2023-06-14T00:57:07;3.80;;;2.50;;
35897;SDS011;21997;47.118;15.346;2023-06-14T00:59:33;3.77;;;2.30;;
35897;SDS011;21997;47.118;15.346;2023-06-14T01:02:00;5.57;;;2.30;;
35897;SDS011;21997;47.118;15.346;2023-06-14T01:04:26;3.17;;;2.63;;
35897;SDS011;21997;47.118;15.346;2023-06-14T01:09:29;4.43;;;2.43;;
35897;SDS011;21997;47.118;15.346;2023-06-14T01:15:06;2.80;;;2.40;;
35897;SDS011;21997;47.118;15.346;2023-06-14T01:17:32;6.50;;;2.70;;
35897;SDS011;21997;47.118;15.346;2023-06-14T01:19:59;2.63;;;2.17;;
35897;SDS011;21997;47.118;15.346;2023-06-14T01:22:26;3.03;;;2.00;;
35897;SDS011;21997;47.118;15.346;2023-06-14T01:24:53;3.23;;;2.87;;
35897;SDS011;21997;47.118;15.346;2023-06-14T01:27:22;3.33;;;2.63;;
35897;SDS011;21997;47.118;15.346;2023-06-14T01:29:49;2.90;;;2.30;;
35897;SDS011;21997;47.118;15.346;2023-06-14T01:32:21;3.73;;;3.07;;
35897;SDS011;21997;47.118;15.346;2023-06-14T01:34:50;3.10;;;2.80;;
35897;SDS011;21997;47.118;15.346;2023-06-14T01:37:16;3.03;;;2.73;;
35897;SDS011;21997;47.118;15.346;2023-06-14T01:39:42;3.77;;;2.90;;
35897;SDS011;21997;47.118;15.346;2023-06-14T01:42:08;3.47;;;2.93;;
35897;SDS011;21997;47.118;15.346;2023-06-14T01:44:36;2.87;;;2.67;;
35897;SDS011;21997;47.118;15.346;2023-06-14T01:47:02;4.03;;;3.40;;
35897;SDS011;21997;47.118;15.346;2023-06-14T01:49:27;3.47;;;3.00;;
35897;SDS011;21997;47.118;15.346;2023-06-14T01:51:53;4.33;;;2.70;;
35897;SDS011;21997;47.118;15.346;2023-06-14T01:54:18;3.97;;;2.83;;
35897;SDS011;21997;47.118;15.346;2023-06-14T01:56:43;4.23;;;2.80;;
35897;SDS011;21997;47.118;15.346;2023-06-14T01:59:09;4.03;;;2.97;;
35897;SDS011;21997;47.118;15.346;2023-06-14T02:01:34;3.90;;;3.10;;
35897;SDS011;21997;47.118;15.346;2023-06-14T02:03:59;3.47;;;3.17;;
35897;SDS011;21997;47.118;15.346;2023-06-14T02:06:26;4.57;;;3.37;;
35897;SDS011;21997;47.118;15.346;2023-06-14T02:08:52;3.73;;;3.07;;
35897;SDS011;21997;47.118;15.346;2023-06-14T02:11:18;4.23;;;3.47;;
35897;SDS011;21997;47.118;15.346;2023-06-14T02:13:43;3.37;;;3.07;;
35897;SDS011;21997;47.118;15.346;2023-06-14T02:16:09;6.47;;;3.00;;
35897;SDS011;21997;47.118;15.346;2023-06-14T02:18:35;4.53;;;3.43;;
35897;SDS011;21997;47.118;15.346;2023-06-14T02:21:01;3.90;;;3.30;;
35897;SDS011;21997;47.118;15.346;2023-06-14T02:23:26;3.23;;;2.93;;
35897;SDS011;21997;47.118;15.346;2023-06-14T02:25:52;3.57;;;2.80;;
35897;SDS011;21997;47.118;15.346;2023-06-14T02:28:17;4.90;;;3.57;;
35897;SDS011;21997;47.118;15.346;2023-06-14T02:30:42;5.43;;;3.07;;
35897;SDS011;21997;47.118;15.346;2023-06-14T02:33:08;4.13;;;3.43;;
35897;SDS011;21997;47.118;15.346;2023-06-14T02:35:37;5.27;;;3.57;;
35897;SDS011;21997;47.118;15.346;2023-06-14T02:38:02;4.87;;;3.13;;
35897;SDS011;21997;47.118;15.346;2023-06-14T02:40:28;2.93;;;2.63;;
35897;SDS011;21997;47.118;15.346;2023-06-14T02:42:53;3.50;;;3.20;;
35897;SDS011;21997;47.118;15.346;2023-06-14T02:45:18;3.63;;;3.23;;
35897;SDS011;21997;47.118;15.346;2023-06-14T02:47:44;2.93;;;2.60;;
35897;SDS011;21997;47.118;15.346;2023-06-14T02:50:10;3.80;;;2.93;;
35897;SDS011;21997;47.118;15.346;2023-06-14T02:52:36;3.47;;;2.60;;
35897;SDS011;21997;47.118;15.346;2023-06-14T02:55:01;3.53;;;2.87;;
35897;SDS011;21997;47.118;15.346;2023-06-14T02:57:27;3.50;;;2.97;;
35897;SDS011;21997;47.118;15.346;2023-06-14T02:59:52;3.67;;;2.73;;
35897;SDS011;21997;47.118;15.346;2023-06-14T03:02:18;4.47;;;2.90;;
35897;SDS011;21997;47.118;15.346;2023-06-14T03:04:43;4.70;;;2.80;;
35897;SDS011;21997;47.118;15.346;2023-06-14T03:07:09;3.27;;;2.73;;
35897;SDS011;21997;47.118;15.346;2023-06-14T03:09:35;3.17;;;2.70;;
35897;SDS011;21997;47.118;15.346;2023-06-14T03:12:02;6.03;;;2.90;;
35897;SDS011;21997;47.118;15.346;2023-06-14T03:14:28;2.97;;;2.67;;
35897;SDS011;21997;47.118;15.346;2023-06-14T03:16:55;3.50;;;3.00;;
35897;SDS011;21997;47.118;15.346;2023-06-14T03:19:21;3.10;;;2.83;;
35897;SDS011;21997;47.118;15.346;2023-06-14T03:21:47;6.03;;;3.00;;
35897;SDS011;21997;47.118;15.346;2023-06-14T03:24:14;2.77;;;2.33;;
35897;SDS011;21997;47.118;15.346;2023-06-14T03:26:41;3.10;;;2.53;;
35897;SDS011;21997;47.118;15.346;2023-06-14T03:29:07;2.93;;;2.63;;
35897;SDS011;21997;47.118;15.346;2023-06-14T03:31:32;4.50;;;2.60;;
35897;SDS011;21997;47.118;15.346;2023-06-14T03:33:59;2.87;;;2.50;;
35897;SDS011;21997;47.118;15.346;2023-06-14T03:36:25;2.90;;;2.50;;
35897;SDS011;21997;47.118;15.346;2023-06-14T03:38:51;3.60;;;2.90;;
35897;SDS011;21997;47.118;15.346;2023-06-14T03:41:16;5.60;;;2.63;;
35897;SDS011;21997;47.118;15.346;2023-06-14T03:43:41;4.07;;;2.77;;
35897;SDS011;21997;47.118;15.346;2023-06-14T03:46:07;4.83;;;2.90;;
35897;SDS011;21997;47.118;15.346;2023-06-14T03:48:34;8.60;;;3.10;;
35897;SDS011;21997;47.118;15.346;2023-06-14T03:51:00;3.13;;;2.77;;
35897;SDS011;21997;47.118;15.346;2023-06-14T03:53:26;3.17;;;2.93;;
35897;SDS011;21997;47.118;15.346;2023-06-14T03:55:53;3.37;;;2.93;;
35897;SDS011;21997;47.118;15.346;2023-06-14T03:58:19;3.60;;;2.70;;
35897;SDS011;21997;47.118;15.346;2023-06-14T04:00:44;3.03;;;2.43;;
35897;SDS011;21997;47.118;15.346;2023-06-14T04:03:10;3.10;;;2.80;;
35897;SDS011;21997;47.118;15.346;2023-06-14T04:05:38;2.97;;;2.67;;
35897;SDS011;21997;47.118;15.346;2023-06-14T04:08:07;4.27;;;2.83;;
35897;SDS011;21997;47.118;15.346;2023-06-14T04:10:34;3.90;;;3.53;;
35897;SDS011;21997;47.118;15.346;2023-06-14T04:12:59;2.80;;;2.53;;
35897;SDS011;21997;47.118;15.346;2023-06-14T04:15:25;4.77;;;3.03;;
35897;SDS011;21997;47.118;15.346;2023-06-14T04:17:52;5.10;;;3.37;;
35897;SDS011;21997;47.118;15.346;2023-06-14T04:20:22;4.43;;;3.00;;
35897;SDS011;21997;47.118;15.346;2023-06-14T04:22:49;4.70;;;3.33;;
35897;SDS011;21997;47.118;15.346;2023-06-14T04:25:14;4.10;;;2.87;;
35897;SDS011;21997;47.118;15.346;2023-06-14T04:27:40;5.20;;;3.37;;
35897;SDS011;21997;47.118;15.346;2023-06-14T04:30:06;4.10;;;3.07;;
35897;SDS011;21997;47.118;15.346;2023-06-14T04:32:32;5.30;;;3.50;;
35897;SDS011;21997;47.118;15.346;2023-06-14T04:35:03;3.33;;;2.90;;
35897;SDS011;21997;47.118;15.346;2023-06-14T04:37:32;3.80;;;3.40;;
35897;SDS011;21997;47.118;15.346;2023-06-14T04:39:58;3.57;;;3.17;;
35897;SDS011;21997;47.118;15.346;2023-06-14T04:42:23;3.87;;;3.47;;
35897;SDS011;21997;47.118;15.346;2023-06-14T04:44:55;4.33;;;3.60;;
35897;SDS011;21997;47.118;15.346;2023-06-14T04:47:21;6.53;;;3.97;;
35897;SDS011;21997;47.118;15.346;2023-06-14T04:49:47;4.40;;;3.90;;
35897;SDS011;21997;47.118;15.346;2023-06-14T04:52:12;4.30;;;3.80;;
35897;SDS011;21997;47.118;15.346;2023-06-14T04:54:38;7.40;;;3.63;;
35897;SDS011;21997;47.118;15.346;2023-06-14T04:57:07;4.20;;;3.80;;
35897;SDS011;21997;47.118;15.346;2023-06-14T04:59:34;3.23;;;2.90;;
35897;SDS011;21997;47.118;15.346;2023-06-14T05:02:00;4.50;;;3.43;;
35897;SDS011;21997;47.118;15.346;2023-06-14T05:04:26;3.60;;;3.30;;
35897;SDS011;21997;47.118;15.346;2023-06-14T05:06:53;5.13;;;3.83;;
35897;SDS011;21997;47.118;15.346;2023-06-14T05:09:19;4.00;;;3.60;;
35897;SDS011;21997;47.118;15.346;2023-06-14T05:11:46;4.10;;;3.70;;
35897;SDS011;21997;47.118;15.346;2023-06-14T05:14:12;3.80;;;3.27;;
35897;SDS011;21997;47.118;15.346;2023-06-14T05:16:38;4.47;;;3.60;;
35897;SDS011;21997;47.118;15.346;2023-06-14T05:19:04;4.17;;;3.47;;
35897;SDS011;21997;47.118;15.346;2023-06-14T05:21:30;5.50;;;3.30;;
35897;SDS011;21997;47.118;15.346;2023-06-14T05:23:56;4.43;;;3.80;;
35897;SDS011;21997;47.118;15.346;2023-06-14T05:26:22;3.60;;;2.97;;
35897;SDS011;21997;47.118;15.346;2023-06-14T05:28:50;4.70;;;3.50;;
35897;SDS011;21997;47.118;15.346;2023-06-14T05:31:17;4.40;;;4.00;;
35897;SDS011;21997;47.118;15.346;2023-06-14T05:33:43;4.37;;;3.97;;
35897;SDS011;21997;47.118;15.346;2023-06-14T05:36:08;3.87;;;3.13;;
35897;SDS011;21997;47.118;15.346;2023-06-14T05:38:33;5.43;;;3.57;;
35897;SDS011;21997;47.118;15.346;2023-06-14T05:40:59;4.70;;;3.17;;
35897;SDS011;21997;47.118;15.346;2023-06-14T05:43:24;3.90;;;3.20;;
35897;SDS011;21997;47.118;15.346;2023-06-14T05:45:49;4.97;;;3.43;;
35897;SDS011;21997;47.118;15.346;2023-06-14T05:48:15;4.47;;;3.20;;
35897;SDS011;21997;47.118;15.346;2023-06-14T05:50:40;5.50;;;3.23;;
35897;SDS011;21997;47.118;15.346;2023-06-14T05:53:05;4.13;;;3.20;;
35897;SDS011;21997;47.118;15.346;2023-06-14T05:55:31;3.73;;;2.80;;
35897;SDS011;21997;47.118;15.346;2023-06-14T05:57:56;6.07;;;3.90;;
35897;SDS011;21997;47.118;15.346;2023-06-14T06:00:22;4.27;;;3.63;;
35897;SDS011;21997;47.118;15.346;2023-06-14T06:02:47;5.20;;;3.13;;
35897;SDS011;21997;47.118;15.346;2023-06-14T06:05:13;4.47;;;3.33;;
35897;SDS011;21997;47.118;15.346;2023-06-14T06:07:40;4.40;;;3.57;;
35897;SDS011;21997;47.118;15.346;2023-06-14T06:10:06;5.10;;;3.57;;
35897;SDS011;21997;47.118;15.346;2023-06-14T06:12:32;5.27;;;3.40;;
35897;SDS011;21997;47.118;15.346;2023-06-14T06:14:58;3.63;;;3.33;;
35897;SDS011;21997;47.118;15.346;2023-06-14T06:17:24;4.93;;;3.77;;
35897;SDS011;21997;47.118;15.346;2023-06-14T06:19:50;5.67;;;3.53;;
35897;SDS011;21997;47.118;15.346;2023-06-14T06:22:15;4.40;;;3.50;;
35897;SDS011;21997;47.118;15.346;2023-06-14T06:24:42;4.83;;;3.47;;
35897;SDS011;21997;47.118;15.346;2023-06-14T06:27:07;5.47;;;4.27;;
35897;SDS011;21997;47.118;15.346;2023-06-14T06:29:33;4.13;;;3.73;;
35897;SDS011;21997;47.118;15.346;2023-06-14T06:32:00;9.20;;;3.63;;
35897;SDS011;21997;47.118;15.346;2023-06-14T06:34:25;7.83;;;3.60;;
35897;SDS011;21997;47.118;15.346;2023-06-14T06:36:51;3.80;;;3.23;;
35897;SDS011;21997;47.118;15.346;2023-06-14T06:39:16;4.00;;;3.33;;
35897;SDS011;21997;47.118;15.346;2023-06-14T06:41:42;5.07;;;4.30;;
35897;SDS011;21997;47.118;15.346;2023-06-14T06:44:07;6.27;;;4.43;;
35897;SDS011;21997;47.118;15.346;2023-06-14T06:46:33;5.33;;;4.47;;
35897;SDS011;21997;47.118;15.346;2023-06-14T06:48:59;5.07;;;4.50;;
35897;SDS011;21997;47.118;15.346;2023-06-14T06:51:25;8.27;;;4.67;;
35897;SDS011;21997;47.118;15.346;2023-06-14T06:53:54;4.57;;;4.17;;
35897;SDS011;21997;47.118;15.346;2023-06-14T06:56:20;5.37;;;4.80;;
35897;SDS011;21997;47.118;15.346;2023-06-14T06:58:48;9.50;;;4.67;;
35897;SDS011;21997;47.118;15.346;2023-06-14T07:01:13;7.97;;;6.07;;
35897;SDS011;21997;47.118;15.346;2023-06-14T07:03:38;5.50;;;5.00;;
35897;SDS011;21997;47.118;15.346;2023-06-14T07:06:04;5.70;;;5.17;;
35897;SDS011;21997;47.118;15.346;2023-06-14T07:08:29;5.33;;;4.83;;
35897;SDS011;21997;47.118;15.346;2023-06-14T07:10:55;6.33;;;5.07;;
35897;SDS011;21997;47.118;15.346;2023-06-14T07:13:20;6.87;;;4.80;;
35897;SDS011;21997;47.118;15.346;2023-06-14T07:15:45;5.93;;;4.97;;
35897;SDS011;21997;47.118;15.346;2023-06-14T07:18:11;8.97;;;4.70;;
35897;SDS011;21997;47.118;15.346;2023-06-14T07:20:36;5.00;;;4.10;;
35897;SDS011;21997;47.118;15.346;2023-06-14T07:23:03;8.53;;;4.40;;
35897;SDS011;21997;47.118;15.346;2023-06-14T07:25:28;6.07;;;4.73;;
35897;SDS011;21997;47.118;15.346;2023-06-14T07:27:54;4.77;;;4.10;;
35897;SDS011;21997;47.118;15.346;2023-06-14T07:30:19;5.13;;;4.10;;
35897;SDS011;21997;47.118;15.346;2023-06-14T07:32:45;4.20;;;3.77;;
35897;SDS011;21997;47.118;15.346;2023-06-14T07:35:10;4.83;;;3.30;;
35897;SDS011;21997;47.118;15.346;2023-06-14T07:37:36;3.20;;;2.53;;
35897;SDS011;21997;47.118;15.346;2023-06-14T07:40:01;4.17;;;2.70;;
35897;SDS011;21997;47.118;15.346;2023-06-14T07:42:32;3.90;;;2.80;;
35897;SDS011;21997;47.118;15.346;2023-06-14T07:45:01;2.47;;;2.27;;
35897;SDS011;21997;47.118;15.346;2023-06-14T07:47:27;3.70;;;2.73;;
35897;SDS011;21997;47.118;15.346;2023-06-14T07:49:52;3.27;;;2.83;;
35897;SDS011;21997;47.118;15.346;2023-06-14T07:52:18;3.83;;;2.70;;
35897;SDS011;21997;47.118;15.346;2023-06-14T07:54:43;2.37;;;2.13;;
35897;SDS011;21997;47.118;15.346;2023-06-14T07:57:09;2.70;;;2.50;;
35897;SDS011;21997;47.118;15.346;2023-06-14T07:59:34;5.57;;;2.50;;
35897;SDS011;21997;47.118;15.346;2023-06-14T08:02:00;6.40;;;3.77;;
35897;SDS011;21997;47.118;15.346;2023-06-14T08:04:25;4.37;;;2.90;;
35897;SDS011;21997;47.118;15.346;2023-06-14T08:06:51;4.10;;;2.50;;
35897;SDS011;21997;47.118;15.346;2023-06-14T08:09:16;3.53;;;2.80;;
35897;SDS011;21997;47.118;15.346;2023-06-14T08:11:42;4.40;;;3.00;;
35897;SDS011;21997;47.118;15.346;2023-06-14T08:14:08;6.93;;;3.23;;
35897;SDS011;21997;47.118;15.346;2023-06-14T08:16:33;3.20;;;2.90;;
35897;SDS011;21997;47.118;15.346;2023-06-14T08:18:59;3.77;;;2.80;;
35897;SDS011;21997;47.118;15.346;2023-06-14T08:21:24;3.53;;;2.63;;
35897;SDS011;21997;47.118;15.346;2023-06-14T08:23:54;3.20;;;2.90;;
35897;SDS011;21997;47.118;15.346;2023-06-14T08:26:22;5.03;;;3.10;;
35897;SDS011;21997;47.118;15.346;2023-06-14T08:28:48;3.90;;;3.03;;
35897;SDS011;21997;47.118;15.346;2023-06-14T08:31:13;5.03;;;3.20;;
35897;SDS011;21997;47.118;15.346;2023-06-14T08:33:38;4.60;;;3.07;;
35897;SDS011;21997;47.118;15.346;2023-06-14T08:36:07;6.20;;;3.10;;
35897;SDS011;21997;47.118;15.346;2023-06-14T08:38:33;3.13;;;2.80;;
35897;SDS011;21997;47.118;15.346;2023-06-14T08:40:58;3.90;;;3.00;;
35897;SDS011;21997;47.118;15.346;2023-06-14T08:43:26;3.60;;;2.83;;
35897;SDS011;21997;47.118;15.346;2023-06-14T08:45:53;4.93;;;3.20;;
35897;SDS011;21997;47.118;15.346;2023-06-14T08:48:21;4.87;;;3.00;;
35897;SDS011;21997;47.118;15.346;2023-06-14T08:50:48;3.40;;;2.93;;
35897;SDS011;21997;47.118;15.346;2023-06-14T08:53:13;4.27;;;3.10;;
35897;SDS011;21997;47.118;15.346;2023-06-14T08:55:45;4.00;;;2.83;;
35897;SDS011;21997;47.118;15.346;2023-06-14T08:58:12;4.77;;;3.40;;
35897;SDS011;21997;47.118;15.346;2023-06-14T09:00:39;3.63;;;3.00;;
35897;SDS011;21997;47.118;15.346;2023-06-14T09:03:06;3.23;;;2.93;;
35897;SDS011;21997;47.118;15.346;2023-06-14T09:05:38;4.30;;;2.73;;
35897;SDS011;21997;47.118;15.346;2023-06-14T09:08:03;4.03;;;3.00;;
35897;SDS011;21997;47.118;15.346;2023-06-14T09:10:30;4.63;;;2.70;;
35897;SDS011;21997;47.118;15.346;2023-06-14T09:12:58;4.10;;;3.20;;
35897;SDS011;21997;47.118;15.346;2023-06-14T09:15:25;4.77;;;3.17;;
35897;SDS011;21997;47.118;15.346;2023-06-14T09:17:51;5.13;;;3.13;;
35897;SDS011;21997;47.118;15.346;2023-06-14T09:20:16;3.60;;;2.93;;
35897;SDS011;21997;47.118;15.346;2023-06-14T09:22:44;5.40;;;2.80;;
35897;SDS011;21997;47.118;15.346;2023-06-14T09:25:10;3.33;;;2.73;;
35897;SDS011;21997;47.118;15.346;2023-06-14T09:27:38;3.97;;;2.77;;
35897;SDS011;21997;47.118;15.346;2023-06-14T09:30:05;4.40;;;2.93;;
35897;SDS011;21997;47.118;15.346;2023-06-14T09:32:35;3.67;;;3.20;;
35897;SDS011;21997;47.118;15.346;2023-06-14T09:35:02;2.80;;;2.53;;
35897;SDS011;21997;47.118;15.346;2023-06-14T09:37:28;3.87;;;2.87;;
35897;SDS011;21997;47.118;15.346;2023-06-14T09:39:54;5.50;;;3.33;;
35897;SDS011;21997;47.118;15.346;2023-06-14T09:42:19;5.97;;;2.90;;
35897;SDS011;21997;47.118;15.346;2023-06-14T09:44:48;3.47;;;2.60;;
35897;SDS011;21997;47.118;15.346;2023-06-14T09:47:17;3.73;;;2.40;;
35897;SDS011;21997;47.118;15.346;2023-06-14T09:49:43;3.23;;;2.57;;
35897;SDS011;21997;47.118;15.346;2023-06-14T09:52:12;3.27;;;2.80;;
35897;SDS011;21997;47.118;15.346;2023-06-14T09:54:41;3.47;;;2.60;;
35897;SDS011;21997;47.118;15.346;2023-06-14T09:57:20;3.60;;;2.70;;
35897;SDS011;21997;47.118;15.346;2023-06-14T09:59:47;3.23;;;2.50;;
35897;SDS011;21997;47.118;15.346;2023-06-14T10:04:56;3.67;;;2.43;;
35897;SDS011;21997;47.118;15.346;2023-06-14T10:07:26;3.40;;;2.50;;
35897;SDS011;21997;47.118;15.346;2023-06-14T10:09:52;3.50;;;2.67;;
35897;SDS011;21997;47.118;15.346;2023-06-14T10:12:18;2.87;;;2.27;;
35897;SDS011;21997;47.118;15.346;2023-06-14T10:14:50;3.10;;;2.40;;
35897;SDS011;21997;47.118;15.346;2023-06-14T10:17:30;4.63;;;2.60;;
35897;SDS011;21997;47.118;15.346;2023-06-14T10:22:51;3.27;;;2.63;;
35897;SDS011;21997;47.118;15.346;2023-06-14T10:25:29;3.67;;;2.40;;
35897;SDS011;21997;47.118;15.346;2023-06-14T10:28:02;6.53;;;2.30;;
35897;SDS011;21997;47.118;15.346;2023-06-14T10:31:08;2.57;;;2.37;;
35897;SDS011;21997;47.118;15.346;2023-06-14T10:34:20;3.77;;;2.47;;
35897;SDS011;21997;47.118;15.346;2023-06-14T10:36:30;3.53;;;2.37;;
35897;SDS011;21997;47.118;15.346;2023-06-14T10:39:04;3.57;;;2.57;;
35897;SDS011;21997;47.118;15.346;2023-06-14T10:41:32;2.27;;;2.07;;
35897;SDS011;21997;47.118;15.346;2023-06-14T10:46:37;2.97;;;2.10;;
35897;SDS011;21997;47.118;15.346;2023-06-14T10:49:03;3.20;;;2.43;;
35897;SDS011;21997;47.118;15.346;2023-06-14T10:51:29;2.20;;;2.00;;
35897;SDS011;21997;47.118;15.346;2023-06-14T10:53:55;2.53;;;1.80;;
35897;SDS011;21997;47.118;15.346;2023-06-14T10:56:28;1.93;;;1.80;;
35897;SDS011;21997;47.118;15.346;2023-06-14T10:58:54;3.00;;;2.20;;
35897;SDS011;21997;47.118;15.346;2023-06-14T11:01:24;3.20;;;2.07;;
35897;SDS011;21997;47.118;15.346;2023-06-14T11:04:00;2.90;;;2.57;;
35897;SDS011;21997;47.118;15.346;2023-06-14T11:06:35;3.10;;;2.80;;
35897;SDS011;21997;47.118;15.346;2023-06-14T11:09:23;3.93;;;2.37;;
35897;SDS011;21997;47.118;15.346;2023-06-14T11:12:01;2.47;;;2.27;;
35897;SDS011;21997;47.118;15.346;2023-06-14T11:14:29;2.53;;;2.13;;
35897;SDS011;21997;47.118;15.346;2023-06-14T11:16:55;3.23;;;2.90;;
35897;SDS011;21997;47.118;15.346;2023-06-14T11:19:21;2.67;;;2.27;;
35897;SDS011;21997;47.118;15.346;2023-06-14T11:21:47;3.27;;;2.20;;
35897;SDS011;21997;47.118;15.346;2023-06-14T11:24:13;2.57;;;2.00;;
35897;SDS011;21997;47.118;15.346;2023-06-14T11:26:39;2.07;;;1.87;;
35897;SDS011;21997;47.118;15.346;2023-06-14T11:29:05;3.63;;;2.37;;
35897;SDS011;21997;47.118;15.346;2023-06-14T11:31:30;2.13;;;1.93;;
35897;SDS011;21997;47.118;15.346;2023-06-14T11:33:56;3.10;;;2.07;;
35897;SDS011;21997;47.118;15.346;2023-06-14T11:36:23;2.40;;;2.20;;
35897;SDS011;21997;47.118;15.346;2023-06-14T11:38:57;2.50;;;2.30;;
35897;SDS011;21997;47.118;15.346;2023-06-14T11:41:32;2.20;;;2.00;;
35897;SDS011;21997;47.118;15.346;2023-06-14T11:44:07;3.63;;;2.23;;
35897;SDS011;21997;47.118;15.346;2023-06-14T11:46:33;3.87;;;2.67;;
35897;SDS011;21997;47.118;15.346;2023-06-14T11:48:58;2.53;;;2.23;;
35897;SDS011;21997;47.118;15.346;2023-06-14T11:51:27;2.83;;;2.40;;
35897;SDS011;21997;47.118;15.346;2023-06-14T11:53:53;2.73;;;2.47;;
35897;SDS011;21997;47.118;15.346;2023-06-14T11:56:19;3.70;;;2.30;;
35897;SDS011;21997;47.118;15.346;2023-06-14T11:58:44;4.50;;;2.23;;
35897;SDS011;21997;47.118;15.346;2023-06-14T12:01:14;2.77;;;1.87;;
35897;SDS011;21997;47.118;15.346;2023-06-14T12:03:46;2.80;;;1.80;;
35897;SDS011;21997;47.118;15.346;2023-06-14T12:06:13;3.00;;;2.37;;
35897;SDS011;21997;47.118;15.346;2023-06-14T12:08:38;4.00;;;2.70;;
35897;SDS011;21997;47.118;15.346;2023-06-14T12:11:13;2.87;;;2.40;;
35897;SDS011;21997;47.118;15.346;2023-06-14T12:13:40;5.43;;;2.43;;
35897;SDS011;21997;47.118;15.346;2023-06-14T12:16:06;3.30;;;2.43;;
35897;SDS011;21997;47.118;15.346;2023-06-14T12:18:37;3.33;;;2.10;;
35897;SDS011;21997;47.118;15.346;2023-06-14T12:21:04;2.43;;;2.13;;
35897;SDS011;21997;47.118;15.346;2023-06-14T12:23:39;3.53;;;2.27;;
35897;SDS011;21997;47.118;15.346;2023-06-14T12:26:04;2.70;;;2.40;;
35897;SDS011;21997;47.118;15.346;2023-06-14T12:28:30;2.97;;;2.30;;
35897;SDS011;21997;47.118;15.346;2023-06-14T12:30:56;2.10;;;1.90;;
35897;SDS011;21997;47.118;15.346;2023-06-14T12:33:23;4.07;;;2.30;;
35897;SDS011;21997;47.118;15.346;2023-06-14T12:35:49;3.17;;;2.23;;
35897;SDS011;21997;47.118;15.346;2023-06-14T12:38:15;3.07;;;1.97;;
35897;SDS011;21997;47.118;15.346;2023-06-14T12:40:41;2.90;;;2.20;;
35897;SDS011;21997;47.118;15.346;2023-06-14T12:43:07;2.57;;;2.37;;
35897;SDS011;21997;47.118;15.346;2023-06-14T12:45:33;2.60;;;2.07;;
35897;SDS011;21997;47.118;15.346;2023-06-14T12:47:58;3.13;;;2.57;;
35897;SDS011;21997;47.118;15.346;2023-06-14T12:50:23;3.57;;;2.30;;
35897;SDS011;21997;47.118;15.346;2023-06-14T12:52:49;2.23;;;2.03;;
35897;SDS011;21997;47.118;15.346;2023-06-14T12:55:14;2.77;;;2.47;;
35897;SDS011;21997;47.118;15.346;2023-06-14T12:57:39;3.30;;;2.40;;
35897;SDS011;21997;47.118;15.346;2023-06-14T13:00:05;4.97;;;2.57;;
35897;SDS011;21997;47.118;15.346;2023-06-14T13:02:32;4.23;;;2.40;;
35897;SDS011;21997;47.118;15.346;2023-06-14T13:04:57;2.27;;;2.00;;
35897;SDS011;21997;47.118;15.346;2023-06-14T13:07:24;4.27;;;2.20;;
35897;SDS011;21997;47.118;15.346;2023-06-14T13:09:49;2.70;;;2.17;;
35897;SDS011;21997;47.118;15.346;2023-06-14T13:12:14;3.23;;;2.07;;
35897;SDS011;21997;47.118;15.346;2023-06-14T13:14:40;2.80;;;2.40;;
35897;SDS011;21997;47.118;15.346;2023-06-14T13:17:07;3.30;;;2.30;;
35897;SDS011;21997;47.118;15.346;2023-06-14T13:19:33;5.03;;;2.77;;
35897;SDS011;21997;47.118;15.346;2023-06-14T13:21:58;2.53;;;2.33;;
35897;SDS011;21997;47.118;15.346;2023-06-14T13:24:24;4.33;;;2.10;;
35897;SDS011;21997;47.118;15.346;2023-06-14T13:26:50;3.63;;;2.40;;
35897;SDS011;21997;47.118;15.346;2023-06-14T13:29:15;2.33;;;1.87;;
35897;SDS011;21997;47.118;15.346;2023-06-14T13:31:41;3.37;;;1.80;;
35897;SDS011;21997;47.118;15.346;2023-06-14T13:34:06;3.60;;;2.57;;
35897;SDS011;21997;47.118;15.346;2023-06-14T13:36:32;4.47;;;2.10;;
35897;SDS011;21997;47.118;15.346;2023-06-14T13:38:57;3.17;;;2.53;;
35897;SDS011;21997;47.118;15.346;2023-06-14T13:41:25;3.77;;;2.17;;
35897;SDS011;21997;47.118;15.346;2023-06-14T13:43:56;3.30;;;2.60;;
35897;SDS011;21997;47.118;15.346;2023-06-14T13:46:22;3.07;;;2.33;;
35897;SDS011;21997;47.118;15.346;2023-06-14T13:48:47;3.37;;;2.30;;
35897;SDS011;21997;47.118;15.346;2023-06-14T13:51:12;2.40;;;2.03;;
35897;SDS011;21997;47.118;15.346;2023-06-14T13:53:38;4.13;;;2.23;;
35897;SDS011;21997;47.118;15.346;2023-06-14T13:56:04;4.40;;;2.70;;
35897;SDS011;21997;47.118;15.346;2023-06-14T13:58:29;2.20;;;2.00;;
35897;SDS011;21997;47.118;15.346;2023-06-14T14:00:54;3.07;;;2.70;;
35897;SDS011;21997;47.118;15.346;2023-06-14T14:03:20;3.37;;;2.40;;
35897;SDS011;21997;47.118;15.346;2023-06-14T14:05:45;2.63;;;2.43;;
35897;SDS011;21997;47.118;15.346;2023-06-14T14:08:10;3.63;;;2.30;;
35897;SDS011;21997;47.118;15.346;2023-06-14T14:10:36;3.87;;;2.27;;
35897;SDS011;21997;47.118;15.346;2023-06-14T14:13:01;3.37;;;2.17;;
35897;SDS011;21997;47.118;15.346;2023-06-14T14:15:26;3.07;;;2.70;;
35897;SDS011;21997;47.118;15.346;2023-06-14T14:17:53;3.63;;;2.60;;
35897;SDS011;21997;47.118;15.346;2023-06-14T14:20:19;3.83;;;3.07;;
35897;SDS011;21997;47.118;15.346;2023-06-14T14:22:44;3.90;;;2.50;;
35897;SDS011;21997;47.118;15.346;2023-06-14T14:25:10;5.27;;;2.40;;
35897;SDS011;21997;47.118;15.346;2023-06-14T14:27:36;5.20;;;2.20;;
35897;SDS011;21997;47.118;15.346;2023-06-14T14:30:02;2.47;;;2.27;;
35897;SDS011;21997;47.118;15.346;2023-06-14T14:32:28;2.83;;;2.20;;
35897;SDS011;21997;47.118;15.346;2023-06-14T14:34:54;2.60;;;2.40;;
35897;SDS011;21997;47.118;15.346;2023-06-14T14:37:19;2.97;;;2.60;;
35897;SDS011;21997;47.118;15.346;2023-06-14T14:39:44;2.70;;;2.50;;
35897;SDS011;21997;47.118;15.346;2023-06-14T14:42:10;2.47;;;2.27;;
35897;SDS011;21997;47.118;15.346;2023-06-14T14:44:37;2.90;;;2.63;;